Time;durP1;ratioP1;P1;durP2;ratioP2;P2;SDS_P1;SDS_P2;PMS_P1;PMS_P2;Temp;Humidity;BMP_temperature;BMP_pressure;BME280_temperature;BME280_humidity;BME280_pressure;Samples;Min_cycle;Max_cycle;Signal;HPM_P1;HPM_P2
2024/03/04 00:00:36;;;;;;;11.77;10.07;;;10.60;99.90;;;;;;5023082;28;20440;-68
2024/03/04 00:03:02;;;;;;;13.23;10.60;;;10.70;99.90;;;;;;5024328;28;21014;-68
2024/03/04 00:05:28;;;;;;;11.00;9.77;;;10.70;99.90;;;;;;5022406;28;20205;-68
2024/03/04 00:07:53;;;;;;;11.43;9.40;;;10.70;99.90;;;;;;5025710;28;20183;-68
2024/03/04 00:10:20;;;;;;;12.90;11.20;;;10.70;99.90;;;;;;5023040;28;20655;-68
2024/03/04 00:12:46;;;;;;;13.30;11.43;;;10.70;99.90;;;;;;5023310;28;20176;-68
2024/03/04 00:15:13;;;;;;;13.83;11.40;;;10.60;99.90;;;;;;5018178;28;20447;-68
2024/03/04 00:17:40;;;;;;;13.50;11.90;;;10.70;99.90;;;;;;5023860;28;20191;-68
2024/03/04 00:20:09;;;;;;;14.00;12.50;;;10.60;99.90;;;;;;5019933;28;20419;-68
2024/03/04 00:22:35;;;;;;;14.73;12.70;;;10.60;99.90;;;;;;5019962;28;21106;-68
2024/03/04 00:25:00;;;;;;;14.93;12.00;;;10.60;99.90;;;;;;5022034;28;20470;-68
2024/03/04 00:27:26;;;;;;;19.23;13.13;;;10.60;99.90;;;;;;5021720;28;20925;-68
2024/03/04 00:29:52;;;;;;;13.73;11.37;;;10.60;99.90;;;;;;5020717;28;20212;-68
2024/03/04 00:32:18;;;;;;;15.97;12.20;;;10.70;99.90;;;;;;5023014;28;20878;-68
2024/03/04 00:34:43;;;;;;;15.57;12.90;;;10.60;99.90;;;;;;5020958;28;20207;-68
2024/03/04 00:37:10;;;;;;;16.87;12.67;;;10.60;99.90;;;;;;5019192;28;20188;-68
2024/03/04 00:39:40;;;;;;;17.57;13.37;;;10.60;99.90;;;;;;5023211;28;20487;-67
2024/03/04 00:42:06;;;;;;;19.77;14.63;;;10.60;99.90;;;;;;5025421;28;20454;-67
2024/03/04 00:44:32;;;;;;;16.77;13.43;;;10.60;99.90;;;;;;5016363;28;20482;-67
2024/03/04 00:46:58;;;;;;;17.17;14.10;;;10.70;99.90;;;;;;5030300;28;20427;-67
2024/03/04 00:49:23;;;;;;;18.13;14.40;;;10.60;99.90;;;;;;5027789;28;20193;-67
2024/03/04 00:51:49;;;;;;;15.73;13.50;;;10.70;99.90;;;;;;5027213;28;20263;-67
2024/03/04 00:54:15;;;;;;;17.23;13.87;;;10.80;99.90;;;;;;5021492;28;20203;-67
2024/03/04 00:56:40;;;;;;;17.30;13.00;;;10.70;99.90;;;;;;5026349;28;20189;-67
2024/03/04 00:59:07;;;;;;;19.60;15.10;;;10.70;99.90;;;;;;5028666;28;20176;-67
2024/03/04 01:01:33;;;;;;;20.40;15.13;;;10.70;99.90;;;;;;5028656;28;20189;-68
2024/03/04 01:03:59;;;;;;;18.90;14.63;;;10.60;99.90;;;;;;5024022;28;20960;-68
2024/03/04 01:06:25;;;;;;;19.13;14.30;;;10.60;99.90;;;;;;5022930;28;20493;-68
2024/03/04 01:08:51;;;;;;;18.10;13.90;;;10.60;99.90;;;;;;5027415;28;20643;-68
2024/03/04 01:11:17;;;;;;;21.40;14.80;;;10.60;99.90;;;;;;5030247;28;20414;-68
2024/03/04 01:13:42;;;;;;;21.13;15.63;;;10.60;99.90;;;;;;5027101;28;20906;-68
2024/03/04 01:16:08;;;;;;;19.20;14.60;;;10.50;99.90;;;;;;5024529;28;20270;-68
2024/03/04 01:18:33;;;;;;;18.83;14.70;;;10.60;99.90;;;;;;5029071;28;20242;-67
2024/03/04 01:21:00;;;;;;;18.20;14.23;;;10.50;99.90;;;;;;5030455;28;20180;-67
2024/03/04 01:23:25;;;;;;;18.47;14.03;;;10.50;99.90;;;;;;5025437;28;20465;-67
2024/03/04 01:25:51;;;;;;;19.77;14.57;;;10.50;99.90;;;;;;5031117;28;20242;-67
2024/03/04 01:28:17;;;;;;;19.90;14.43;;;10.50;99.90;;;;;;5025758;28;20181;-67
2024/03/04 01:30:43;;;;;;;19.27;13.70;;;10.40;99.90;;;;;;5026568;28;20186;-68
2024/03/04 01:33:08;;;;;;;21.70;15.27;;;10.50;99.90;;;;;;5027483;28;20423;-67
2024/03/04 01:35:34;;;;;;;17.20;14.03;;;10.50;99.90;;;;;;5027312;28;20209;-67
2024/03/04 01:38:00;;;;;;;20.40;15.47;;;10.50;99.90;;;;;;5026337;28;20188;-67
2024/03/04 01:40:26;;;;;;;19.90;15.23;;;10.50;99.90;;;;;;5030203;28;20791;-67
2024/03/04 01:42:56;;;;;;;21.97;15.43;;;10.50;99.90;;;;;;5031977;28;20486;-68
2024/03/04 01:45:26;;;;;;;17.63;14.30;;;10.50;99.90;;;;;;5026306;28;20976;-68
2024/03/04 01:47:58;;;;;;;19.80;14.60;;;10.50;99.90;;;;;;5023030;28;20428;-68
2024/03/04 01:50:26;;;;;;;20.70;15.70;;;10.30;99.90;;;;;;5018990;28;20446;-68
2024/03/04 01:52:55;;;;;;;19.43;14.97;;;10.30;99.90;;;;;;5025060;28;20753;-68
2024/03/04 01:55:22;;;;;;;22.80;15.57;;;10.40;99.90;;;;;;5025435;28;20470;-68
2024/03/04 01:57:48;;;;;;;21.20;15.60;;;10.40;99.90;;;;;;5026249;28;20931;-68
2024/03/04 02:00:16;;;;;;;21.03;15.87;;;10.30;99.90;;;;;;5025157;28;20436;-68
2024/03/04 02:02:42;;;;;;;20.83;16.40;;;10.40;99.90;;;;;;5019937;28;20508;-68
2024/03/04 02:05:10;;;;;;;20.40;14.97;;;10.60;99.90;;;;;;5025974;28;20527;-69
2024/03/04 02:07:39;;;;;;;20.53;16.67;;;10.60;99.90;;;;;;5025215;28;20968;-68
2024/03/04 02:10:09;;;;;;;22.60;16.53;;;10.50;99.90;;;;;;5020870;28;20522;-68
2024/03/04 02:12:36;;;;;;;20.87;16.43;;;10.50;99.90;;;;;;5023739;28;20404;-68
2024/03/04 02:15:02;;;;;;;24.70;17.70;;;10.50;99.90;;;;;;5020381;28;20874;-68
2024/03/04 02:17:28;;;;;;;27.27;17.87;;;10.50;99.90;;;;;;5022867;28;20517;-68
2024/03/04 02:20:07;;;;;;;22.40;17.70;;;10.60;99.90;;;;;;5021760;28;20453;-68
2024/03/04 02:22:33;;;;;;;27.53;18.03;;;10.50;99.90;;;;;;5018601;28;20415;-68
2024/03/04 02:24:58;;;;;;;21.50;16.80;;;10.60;99.90;;;;;;5024785;28;20481;-69
2024/03/04 02:27:24;;;;;;;23.03;17.37;;;10.60;99.90;;;;;;5019943;28;20172;-68
2024/03/04 02:29:49;;;;;;;25.90;19.10;;;10.60;99.90;;;;;;5026216;28;20204;-68
2024/03/04 02:32:16;;;;;;;23.93;18.80;;;10.50;99.90;;;;;;5028891;28;20224;-68
2024/03/04 02:34:45;;;;;;;22.73;18.77;;;10.50;99.90;;;;;;5020801;28;20189;-68
2024/03/04 02:37:12;;;;;;;25.07;18.27;;;10.50;99.90;;;;;;5022865;28;20485;-68
2024/03/04 02:39:39;;;;;;;30.10;17.80;;;10.50;99.90;;;;;;5024220;28;20456;-68
2024/03/04 02:42:05;;;;;;;25.40;18.47;;;10.50;99.90;;;;;;5025684;28;20441;-68
2024/03/04 02:44:32;;;;;;;25.10;18.80;;;10.50;99.90;;;;;;5019936;28;20475;-68
2024/03/04 02:46:57;;;;;;;24.53;18.50;;;10.50;99.90;;;;;;5020546;28;20420;-68
2024/03/04 02:49:23;;;;;;;32.60;20.63;;;10.40;99.90;;;;;;5017143;28;21224;-68
2024/03/04 02:51:49;;;;;;;23.93;16.40;;;10.50;99.90;;;;;;5015096;28;20414;-68
2024/03/04 02:54:14;;;;;;;28.40;20.80;;;10.40;99.90;;;;;;5025037;28;20230;-68
2024/03/04 02:56:40;;;;;;;31.00;19.33;;;10.50;99.90;;;;;;5024905;28;20196;-67
2024/03/04 02:59:05;;;;;;;32.00;19.70;;;10.40;99.90;;;;;;5018878;28;20299;-67
2024/03/04 03:01:31;;;;;;;28.80;19.43;;;10.40;99.90;;;;;;5021024;28;20257;-68
2024/03/04 03:03:57;;;;;;;28.97;21.50;;;10.40;99.90;;;;;;5018420;28;20208;-68
2024/03/04 03:06:23;;;;;;;28.87;19.60;;;10.40;99.90;;;;;;5018313;28;20447;-68
2024/03/04 03:08:49;;;;;;;27.17;19.77;;;10.50;99.90;;;;;;5019030;28;20250;-68
2024/03/04 03:11:16;;;;;;;31.93;20.73;;;10.50;99.90;;;;;;5024102;28;20181;-68
2024/03/04 03:13:44;;;;;;;26.40;20.63;;;10.50;99.90;;;;;;5023788;28;20984;-68
2024/03/04 03:16:20;;;;;;;25.77;20.30;;;10.50;99.90;;;;;;5016508;28;20843;-67
2024/03/04 03:18:46;;;;;;;29.47;21.40;;;10.50;99.90;;;;;;5022261;28;20432;-68
2024/03/04 03:21:12;;;;;;;30.97;20.57;;;10.50;99.90;;;;;;5012820;28;20440;-67
2024/03/04 03:23:41;;;;;;;31.13;21.23;;;10.50;99.90;;;;;;5018934;28;20562;-67
2024/03/04 03:26:07;;;;;;;29.63;21.43;;;10.50;99.90;;;;;;5020051;28;20453;-68
2024/03/04 03:28:32;;;;;;;30.37;21.70;;;10.50;99.90;;;;;;5023125;28;20431;-67
2024/03/04 03:30:58;;;;;;;37.13;22.60;;;10.50;99.90;;;;;;5018022;28;20249;-68
2024/03/04 03:33:24;;;;;;;35.00;22.40;;;10.50;99.90;;;;;;5017412;28;20181;-68
2024/03/04 03:35:49;;;;;;;28.60;21.37;;;10.50;99.90;;;;;;5022491;28;20184;-68
2024/03/04 03:38:15;;;;;;;27.90;21.40;;;10.40;99.90;;;;;;5023734;28;20188;-68
2024/03/04 03:40:40;;;;;;;28.17;21.20;;;10.40;99.90;;;;;;5022647;28;20215;-68
2024/03/04 03:43:06;;;;;;;29.50;21.20;;;10.40;99.90;;;;;;5015801;28;20287;-67
2024/03/04 03:45:33;;;;;;;29.33;22.47;;;10.50;99.90;;;;;;5015631;28;20204;-68
2024/03/04 03:47:59;;;;;;;31.80;20.43;;;10.50;99.90;;;;;;5023716;28;20635;-68
2024/03/04 03:50:24;;;;;;;28.97;21.23;;;10.50;99.90;;;;;;5017095;28;20418;-67
2024/03/04 03:52:50;;;;;;;35.90;21.40;;;10.50;99.90;;;;;;5019340;28;20705;-68
2024/03/04 03:55:15;;;;;;;31.50;23.10;;;10.40;99.90;;;;;;5021290;28;20769;-68
2024/03/04 03:57:43;;;;;;;32.77;22.47;;;10.40;99.90;;;;;;5019709;28;20189;-68
2024/03/04 04:00:10;;;;;;;31.67;21.50;;;10.50;99.90;;;;;;5021535;28;20180;-68
2024/03/04 04:02:36;;;;;;;35.67;23.90;;;10.50;99.90;;;;;;5017537;28;20435;-68
2024/03/04 04:05:02;;;;;;;32.93;24.00;;;10.30;99.90;;;;;;5019998;28;21075;-68
2024/03/04 04:07:28;;;;;;;36.83;25.10;;;10.40;99.90;;;;;;5021215;28;20204;-67
2024/03/04 04:09:54;;;;;;;38.23;25.00;;;10.40;99.90;;;;;;5019176;28;20458;-68
2024/03/04 04:12:19;;;;;;;40.87;25.47;;;10.30;99.90;;;;;;5020576;28;21005;-68
2024/03/04 04:14:45;;;;;;;35.17;23.50;;;10.40;99.90;;;;;;5018928;28;20272;-68
2024/03/04 04:17:12;;;;;;;39.30;24.20;;;10.40;99.90;;;;;;5021112;28;20234;-68
2024/03/04 04:19:38;;;;;;;31.70;21.87;;;10.40;99.90;;;;;;5019275;28;20432;-68
2024/03/04 04:22:04;;;;;;;38.70;24.30;;;10.40;99.90;;;;;;5014880;28;20977;-68
2024/03/04 04:24:30;;;;;;;37.40;24.07;;;10.50;99.90;;;;;;5019899;28;20219;-68
2024/03/04 04:26:56;;;;;;;37.53;24.03;;;10.50;99.90;;;;;;5020268;28;20214;-68
2024/03/04 04:29:21;;;;;;;36.33;24.37;;;10.50;99.90;;;;;;5019035;28;20475;-67
2024/03/04 04:31:47;;;;;;;32.47;22.60;;;10.40;99.90;;;;;;5020257;28;20195;-68
2024/03/04 04:34:12;;;;;;;35.63;24.60;;;10.40;99.90;;;;;;5015295;28;20204;-68
2024/03/04 04:36:46;;;;;;;40.43;25.70;;;10.40;99.90;;;;;;5027559;28;20195;-68
2024/03/04 04:39:11;;;;;;;34.37;23.37;;;10.50;99.90;;;;;;5017809;28;20181;-68
2024/03/04 04:41:37;;;;;;;37.60;25.70;;;10.40;99.90;;;;;;5021892;28;20454;-68
2024/03/04 04:44:03;;;;;;;41.23;23.30;;;10.40;99.90;;;;;;5019343;28;20632;-68
2024/03/04 04:46:28;;;;;;;37.17;25.63;;;10.40;99.90;;;;;;5015202;28;20193;-68
2024/03/04 04:48:54;;;;;;;35.73;23.23;;;10.30;99.90;;;;;;5018047;28;20181;-68
2024/03/04 04:51:19;;;;;;;37.73;24.33;;;10.20;99.90;;;;;;5013218;28;20185;-67
2024/03/04 04:53:45;;;;;;;35.27;24.27;;;10.30;99.90;;;;;;5017900;28;20201;-68
2024/03/04 04:56:16;;;;;;;36.53;24.47;;;10.20;99.90;;;;;;5019105;28;20267;-67
2024/03/04 04:58:42;;;;;;;39.10;23.37;;;10.20;99.90;;;;;;5016878;28;20255;-68
2024/03/04 05:01:07;;;;;;;39.30;24.27;;;10.30;99.90;;;;;;5016988;28;20427;-68
2024/03/04 05:03:33;;;;;;;35.33;24.07;;;10.30;99.90;;;;;;5015491;28;20252;-67
2024/03/04 05:06:00;;;;;;;38.30;24.53;;;10.30;99.90;;;;;;5019864;28;20276;-67
2024/03/04 05:08:25;;;;;;;38.77;24.23;;;10.30;99.90;;;;;;5019108;28;20247;-68
2024/03/04 05:10:51;;;;;;;40.13;26.80;;;10.30;99.90;;;;;;5021527;28;20419;-67
2024/03/04 05:13:16;;;;;;;41.43;25.83;;;10.20;99.90;;;;;;5020378;28;20197;-68
2024/03/04 05:15:42;;;;;;;38.47;25.90;;;10.20;99.90;;;;;;5016350;28;20229;-68
2024/03/04 05:18:09;;;;;;;36.53;23.27;;;10.20;99.90;;;;;;5018890;28;20246;-68
2024/03/04 05:20:35;;;;;;;42.00;25.67;;;10.20;99.90;;;;;;5015960;28;20427;-68
2024/03/04 05:23:01;;;;;;;37.83;25.00;;;10.20;99.90;;;;;;5011005;28;20471;-68
2024/03/04 05:25:27;;;;;;;37.83;24.70;;;10.20;99.90;;;;;;5020794;28;20482;-68
2024/03/04 05:27:52;;;;;;;39.80;24.40;;;10.30;99.90;;;;;;5017113;28;20226;-68
2024/03/04 05:30:18;;;;;;;37.13;24.00;;;10.40;99.90;;;;;;5021142;28;20271;-68
2024/03/04 05:32:44;;;;;;;35.70;24.37;;;10.40;99.90;;;;;;5017345;28;20195;-68
2024/03/04 05:35:11;;;;;;;38.70;25.47;;;10.30;99.90;;;;;;5019013;28;20941;-68
2024/03/04 05:37:37;;;;;;;45.47;25.80;;;10.30;99.90;;;;;;5029474;28;20172;-68
2024/03/04 05:40:09;;;;;;;36.07;24.40;;;10.30;99.90;;;;;;5024639;28;20437;-67
2024/03/04 05:42:41;;;;;;;38.83;25.97;;;10.40;99.90;;;;;;5025797;28;20546;-67
2024/03/04 05:45:10;;;;;;;39.60;24.33;;;10.30;99.90;;;;;;5028061;28;20431;-68
2024/03/04 05:47:36;;;;;;;40.23;25.50;;;10.30;99.90;;;;;;5020117;28;20438;-68
2024/03/04 05:50:03;;;;;;;36.67;24.57;;;10.40;99.90;;;;;;5014777;28;20443;-68
2024/03/04 05:52:29;;;;;;;38.80;25.00;;;10.30;99.90;;;;;;5030014;28;20495;-68
2024/03/04 05:54:54;;;;;;;38.37;24.97;;;10.30;99.90;;;;;;5023406;28;20456;-68
2024/03/04 05:57:20;;;;;;;34.70;23.20;;;10.30;99.90;;;;;;5020125;28;20235;-68
2024/03/04 05:59:46;;;;;;;44.67;24.00;;;10.30;99.90;;;;;;5024155;28;20180;-68
2024/03/04 06:02:11;;;;;;;38.87;24.70;;;10.30;99.90;;;;;;5020788;28;20208;-68
2024/03/04 06:04:37;;;;;;;39.40;26.73;;;10.30;99.90;;;;;;5022580;28;20600;-68
2024/03/04 06:07:03;;;;;;;53.83;24.77;;;10.30;99.90;;;;;;5017012;28;20189;-68
2024/03/04 06:09:28;;;;;;;36.40;25.37;;;10.30;99.90;;;;;;5021947;28;20181;-68
2024/03/04 06:11:54;;;;;;;36.00;24.23;;;10.40;99.90;;;;;;5016813;28;20456;-68
2024/03/04 06:14:20;;;;;;;38.40;23.80;;;10.30;99.90;;;;;;5021594;28;20227;-68
2024/03/04 06:16:46;;;;;;;37.23;26.27;;;10.40;99.90;;;;;;5017159;28;20255;-68
2024/03/04 06:19:11;;;;;;;37.17;24.37;;;10.30;99.90;;;;;;5022840;28;20419;-68
2024/03/04 06:21:37;;;;;;;45.57;26.60;;;10.30;99.90;;;;;;5018579;28;20221;-68
2024/03/04 06:24:03;;;;;;;42.87;25.63;;;10.40;99.90;;;;;;5021564;28;20262;-68
2024/03/04 06:26:29;;;;;;;38.33;26.20;;;10.20;99.90;;;;;;5026606;28;20200;-68
2024/03/04 06:28:54;;;;;;;42.10;27.20;;;10.20;99.90;;;;;;5015234;28;20530;-68
2024/03/04 06:31:20;;;;;;;39.83;25.40;;;10.20;99.90;;;;;;5022190;28;20189;-68
2024/03/04 06:33:45;;;;;;;39.20;24.63;;;10.20;99.90;;;;;;5024954;28;20204;-68
2024/03/04 06:36:11;;;;;;;46.20;26.27;;;10.30;99.90;;;;;;5016527;28;20210;-68
2024/03/04 06:38:38;;;;;;;35.03;23.23;;;10.40;99.90;;;;;;5021360;28;20180;-68
2024/03/04 06:41:05;;;;;;;38.83;25.13;;;10.40;99.90;;;;;;5018438;28;20189;-68
2024/03/04 06:43:31;;;;;;;44.23;25.60;;;10.30;99.90;;;;;;5024496;28;20459;-68
2024/03/04 06:45:57;;;;;;;36.53;23.83;;;10.40;99.90;;;;;;5018093;28;20407;-68
2024/03/04 06:48:23;;;;;;;38.37;26.23;;;10.30;99.90;;;;;;5018244;28;20415;-68
2024/03/04 06:50:48;;;;;;;42.40;25.63;;;10.40;99.90;;;;;;5021942;28;20412;-68
2024/03/04 06:53:14;;;;;;;42.40;26.10;;;10.30;99.90;;;;;;5023082;28;20184;-68
2024/03/04 06:55:40;;;;;;;39.50;24.73;;;10.40;99.90;;;;;;5019044;28;20205;-68
2024/03/04 06:58:05;;;;;;;39.10;25.63;;;10.50;99.90;;;;;;5018611;28;20194;-68
2024/03/04 07:00:31;;;;;;;40.87;26.40;;;10.40;99.90;;;;;;5018560;28;20189;-68
2024/03/04 07:02:56;;;;;;;38.03;24.70;;;10.40;99.90;;;;;;5023677;28;20582;-68
2024/03/04 07:05:22;;;;;;;40.27;25.27;;;10.40;99.90;;;;;;5020976;28;20371;-68
2024/03/04 07:07:48;;;;;;;40.10;24.27;;;10.40;99.90;;;;;;5021841;28;20183;-68
2024/03/04 07:10:14;;;;;;;39.50;24.60;;;10.40;99.90;;;;;;5022204;28;20252;-68
2024/03/04 07:12:39;;;;;;;35.70;23.00;;;10.30;99.90;;;;;;5025234;28;20218;-68
2024/03/04 07:15:06;;;;;;;38.17;24.77;;;10.50;99.90;;;;;;5022329;28;20843;-68
2024/03/04 07:17:31;;;;;;;37.60;24.10;;;10.60;99.90;;;;;;5021258;28;20192;-68
2024/03/04 07:19:57;;;;;;;43.40;25.23;;;10.50;99.90;;;;;;5022338;28;20780;-68
2024/03/04 07:22:23;;;;;;;41.73;24.87;;;10.40;99.90;;;;;;5024390;28;20188;-68
2024/03/04 07:24:48;;;;;;;41.33;25.00;;;10.40;99.90;;;;;;5017903;28;20332;-68
2024/03/04 07:27:14;;;;;;;36.80;24.50;;;10.50;99.90;;;;;;5024406;28;20193;-68
2024/03/04 07:29:40;;;;;;;41.93;24.27;;;10.60;99.90;;;;;;5017609;28;20263;-68
2024/03/04 07:32:06;;;;;;;40.37;23.60;;;10.60;99.90;;;;;;5021965;28;20169;-68
2024/03/04 07:34:32;;;;;;;43.57;25.10;;;10.50;99.90;;;;;;5019360;28;20459;-67
2024/03/04 07:36:58;;;;;;;39.83;23.40;;;10.50;99.90;;;;;;5022437;28;21307;-68
2024/03/04 07:39:24;;;;;;;39.10;25.40;;;10.50;99.90;;;;;;5020670;28;20215;-68
2024/03/04 07:41:50;;;;;;;39.70;24.30;;;10.60;99.90;;;;;;5021877;28;20192;-67
2024/03/04 07:44:19;;;;;;;38.07;24.50;;;10.60;99.90;;;;;;5019955;28;20208;-67
2024/03/04 07:46:47;;;;;;;36.50;24.40;;;10.70;99.90;;;;;;5021869;28;20423;-68
2024/03/04 07:49:12;;;;;;;36.07;23.43;;;10.60;99.90;;;;;;5017229;28;20504;-68
2024/03/04 07:51:38;;;;;;;35.50;21.00;;;10.60;99.90;;;;;;5020462;28;20806;-67
2024/03/04 07:54:04;;;;;;;32.53;23.37;;;10.70;99.90;;;;;;5021509;28;20682;-68
2024/03/04 07:56:31;;;;;;;37.83;25.00;;;10.70;99.90;;;;;;5020856;28;20211;-68
2024/03/04 07:58:57;;;;;;;43.83;26.53;;;10.60;99.90;;;;;;5013433;28;20835;-68
2024/03/04 08:01:22;;;;;;;41.70;26.43;;;10.40;99.90;;;;;;5018533;28;20439;-68
2024/03/04 08:03:48;;;;;;;40.67;26.50;;;10.40;99.90;;;;;;5023218;28;20212;-68
2024/03/04 08:06:14;;;;;;;42.40;27.30;;;10.40;99.90;;;;;;5018265;28;20694;-68
2024/03/04 08:08:39;;;;;;;41.90;26.77;;;10.50;99.90;;;;;;5021082;28;20177;-68
2024/03/04 08:11:05;;;;;;;38.87;25.20;;;10.40;99.90;;;;;;5019751;28;20585;-68
2024/03/04 08:13:30;;;;;;;41.13;25.80;;;10.50;99.90;;;;;;5016676;28;20447;-68
2024/03/04 08:15:56;;;;;;;41.40;25.33;;;10.50;99.90;;;;;;5015698;28;20185;-67
2024/03/04 08:18:22;;;;;;;39.87;25.63;;;10.50;99.90;;;;;;5017859;28;20205;-67
2024/03/04 08:20:51;;;;;;;40.50;23.30;;;10.50;99.90;;;;;;5022727;28;20547;-68
2024/03/04 08:23:17;;;;;;;35.87;23.70;;;10.60;99.90;;;;;;5019321;28;20200;-67
2024/03/04 08:25:42;;;;;;;40.47;25.57;;;10.60;99.90;;;;;;5015705;28;20448;-67
2024/03/04 08:28:09;;;;;;;34.17;23.37;;;10.60;99.90;;;;;;5018045;28;20169;-67
2024/03/04 08:30:37;;;;;;;39.70;25.13;;;10.60;99.90;;;;;;5019749;28;20179;-68
2024/03/04 08:33:05;;;;;;;38.30;24.53;;;10.70;99.90;;;;;;5014775;28;20434;-68
2024/03/04 08:35:31;;;;;;;36.20;24.23;;;10.70;99.90;;;;;;5018971;28;20455;-68
2024/03/04 08:37:57;;;;;;;38.40;24.70;;;10.80;99.90;;;;;;5028004;28;20510;-68
2024/03/04 08:40:22;;;;;;;36.63;23.80;;;10.60;99.90;;;;;;5019209;28;20186;-68
2024/03/04 08:42:48;;;;;;;39.70;26.30;;;10.70;99.90;;;;;;5015729;28;20583;-67
2024/03/04 08:45:17;;;;;;;45.20;28.60;;;10.70;99.90;;;;;;5017181;28;20192;-67
2024/03/04 08:47:43;;;;;;;36.30;22.60;;;10.80;99.90;;;;;;5009826;28;20189;-67
2024/03/04 08:50:09;;;;;;;36.10;24.67;;;10.90;99.90;;;;;;5021126;28;20407;-68
2024/03/04 08:52:35;;;;;;;35.23;24.03;;;10.80;99.90;;;;;;5015165;28;20554;-67
2024/03/04 08:55:01;;;;;;;38.83;23.70;;;10.80;99.90;;;;;;5016179;28;21035;-68
2024/03/04 08:57:26;;;;;;;40.80;24.47;;;10.80;99.90;;;;;;5014181;28;20632;-68
2024/03/04 08:59:52;;;;;;;40.67;25.17;;;10.80;99.90;;;;;;5018974;28;20185;-68
2024/03/04 09:02:18;;;;;;;33.30;22.77;;;10.90;99.90;;;;;;5020922;28;20176;-67
2024/03/04 09:04:47;;;;;;;33.83;23.07;;;10.90;99.90;;;;;;5017307;28;20213;-67
2024/03/04 09:07:14;;;;;;;37.27;22.97;;;10.90;99.90;;;;;;5016018;28;20447;-67
2024/03/04 09:09:40;;;;;;;38.23;24.80;;;11.00;99.90;;;;;;5022241;28;20411;-67
2024/03/04 09:12:08;;;;;;;32.07;22.63;;;10.90;99.90;;;;;;5024085;28;20418;-67
2024/03/04 09:14:33;;;;;;;39.43;24.40;;;10.90;99.90;;;;;;5025570;28;20458;-67
2024/03/04 09:16:59;;;;;;;37.90;23.97;;;10.90;99.90;;;;;;5017635;28;20937;-68
2024/03/04 09:19:25;;;;;;;39.30;23.20;;;10.90;99.90;;;;;;5025676;28;20180;-68
2024/03/04 09:21:50;;;;;;;32.43;22.90;;;10.80;99.90;;;;;;5024247;28;20317;-67
2024/03/04 09:24:16;;;;;;;33.47;22.97;;;10.80;99.90;;;;;;5025821;28;22104;-67
2024/03/04 09:26:48;;;;;;;31.67;22.70;;;10.90;99.90;;;;;;5021882;28;20221;-68
2024/03/04 09:29:13;;;;;;;34.10;23.10;;;10.90;99.90;;;;;;5022944;28;20173;-68
2024/03/04 09:31:39;;;;;;;37.97;22.57;;;10.80;99.90;;;;;;5027648;28;20457;-68
2024/03/04 09:34:05;;;;;;;34.83;23.53;;;10.70;99.90;;;;;;5025338;28;20200;-68
2024/03/04 09:36:31;;;;;;;32.87;22.70;;;10.70;99.90;;;;;;5022040;28;20446;-68
2024/03/04 09:38:57;;;;;;;37.20;24.30;;;10.80;99.90;;;;;;5023253;28;20414;-68
2024/03/04 09:41:25;;;;;;;32.77;23.27;;;10.90;99.90;;;;;;5026012;28;20192;-68
2024/03/04 09:43:51;;;;;;;33.63;21.77;;;10.90;99.90;;;;;;5023723;28;21126;-68
2024/03/04 09:46:18;;;;;;;34.00;23.80;;;10.90;99.90;;;;;;5024839;28;20423;-68
2024/03/04 09:48:47;;;;;;;30.37;21.80;;;11.00;99.90;;;;;;5026874;28;20410;-68
2024/03/04 09:51:15;;;;;;;39.30;22.70;;;11.10;99.90;;;;;;5024351;28;20411;-68
2024/03/04 09:53:42;;;;;;;30.60;21.07;;;11.10;99.90;;;;;;5023002;28;20435;-68
2024/03/04 09:56:08;;;;;;;35.03;22.13;;;11.20;99.90;;;;;;5024732;28;20453;-68
2024/03/04 09:58:34;;;;;;;34.43;24.30;;;11.10;99.90;;;;;;5025101;28;20414;-68
2024/03/04 10:01:00;;;;;;;32.23;21.23;;;11.10;99.90;;;;;;5022769;28;20188;-68
2024/03/04 10:03:28;;;;;;;32.23;22.00;;;11.00;99.90;;;;;;5021317;28;20583;-68
2024/03/04 10:05:54;;;;;;;35.83;22.97;;;11.00;99.90;;;;;;5020629;28;20442;-68
2024/03/04 10:08:20;;;;;;;36.00;21.10;;;10.90;99.90;;;;;;5017558;28;20420;-67
2024/03/04 10:10:49;;;;;;;32.37;21.57;;;10.80;99.90;;;;;;5025390;28;20422;-67
2024/03/04 10:13:16;;;;;;;32.20;21.27;;;10.90;99.90;;;;;;5022355;28;20185;-70
2024/03/04 10:15:48;;;;;;;30.67;20.90;;;10.90;99.90;;;;;;5022901;28;20777;-68
2024/03/04 10:18:16;;;;;;;34.23;19.97;;;11.00;99.90;;;;;;5017780;28;21166;-68
2024/03/04 10:20:43;;;;;;;33.60;22.30;;;11.00;99.90;;;;;;5025575;28;20411;-68
2024/03/04 10:23:09;;;;;;;34.60;22.00;;;10.90;99.90;;;;;;5020931;28;20450;-68
2024/03/04 10:25:35;;;;;;;30.40;22.20;;;10.90;99.90;;;;;;5025500;28;20785;-67
2024/03/04 10:28:02;;;;;;;29.33;18.87;;;11.00;99.90;;;;;;5015865;28;20439;-68
2024/03/04 10:30:27;;;;;;;38.50;22.60;;;11.00;99.90;;;;;;5017337;28;20165;-67
2024/03/04 10:32:58;;;;;;;31.23;21.70;;;10.90;99.90;;;;;;5021745;28;20417;-67
2024/03/04 10:35:28;;;;;;;29.13;19.63;;;10.90;99.90;;;;;;5024903;28;20629;-67
2024/03/04 10:37:59;;;;;;;32.10;20.57;;;10.90;99.90;;;;;;5020037;28;20435;-67
2024/03/04 10:40:25;;;;;;;32.70;20.80;;;11.00;99.90;;;;;;5019399;28;20411;-67
2024/03/04 10:42:50;;;;;;;28.77;20.03;;;11.00;99.90;;;;;;5020711;28;20438;-67
2024/03/04 10:45:16;;;;;;;35.60;21.80;;;10.90;99.90;;;;;;5021335;28;20462;-67
2024/03/04 10:47:44;;;;;;;30.13;20.87;;;11.00;99.90;;;;;;5022138;28;20684;-68
2024/03/04 10:50:17;;;;;;;29.77;20.43;;;11.00;99.90;;;;;;5019480;28;20177;-68
2024/03/04 10:52:45;;;;;;;31.93;21.23;;;11.10;99.90;;;;;;5021738;28;20403;-67
2024/03/04 10:55:14;;;;;;;32.50;20.10;;;11.10;99.90;;;;;;5020776;28;20513;-67
2024/03/04 10:57:44;;;;;;;31.63;20.53;;;11.00;99.90;;;;;;5023702;28;20439;-67
2024/03/04 11:02:58;;;;;;;31.40;18.83;;;11.10;99.90;;;;;;5020874;28;20415;-68
2024/03/04 11:05:26;;;;;;;30.70;20.50;;;11.20;99.90;;;;;;5024395;28;20455;-67
2024/03/04 11:07:57;;;;;;;32.33;18.67;;;11.20;99.90;;;;;;5022024;28;20514;-67
2024/03/04 11:10:46;;;;;;;35.90;20.77;;;11.20;99.90;;;;;;5026469;28;20420;-67
2024/03/04 11:13:51;;;;;;;34.23;19.97;;;11.10;99.90;;;;;;5020161;28;20487;-68
2024/03/04 11:16:39;;;;;;;26.87;17.97;;;11.00;99.90;;;;;;5016788;28;20447;-68
2024/03/04 11:19:09;;;;;;;36.63;19.60;;;10.90;99.90;;;;;;5023727;28;20415;-69
2024/03/04 11:21:37;;;;;;;30.70;18.40;;;10.80;99.90;;;;;;5017412;28;20441;-69
2024/03/04 11:24:06;;;;;;;29.77;17.30;;;10.80;99.90;;;;;;5022511;28;20467;-69
2024/03/04 11:26:33;;;;;;;28.77;18.50;;;10.80;99.90;;;;;;5019550;28;20818;-69
2024/03/04 11:29:00;;;;;;;28.83;18.23;;;10.80;99.90;;;;;;5025741;28;20411;-69
2024/03/04 11:31:27;;;;;;;26.53;18.97;;;10.90;99.90;;;;;;5022500;28;20914;-69
2024/03/04 11:34:08;;;;;;;28.77;18.40;;;10.90;99.90;;;;;;5023546;28;20435;-69
2024/03/04 11:36:35;;;;;;;29.80;18.87;;;10.90;99.90;;;;;;5021062;28;20549;-68
2024/03/04 11:39:12;;;;;;;30.67;18.00;;;10.90;99.90;;;;;;5021393;28;20411;-69
2024/03/04 11:41:41;;;;;;;27.50;16.43;;;10.80;99.90;;;;;;5017946;28;20455;-69
2024/03/04 11:44:07;;;;;;;26.43;17.63;;;10.80;99.90;;;;;;5021635;28;20956;-69
2024/03/04 11:46:41;;;;;;;26.67;17.63;;;10.90;99.90;;;;;;5016062;28;20510;-69
2024/03/04 11:49:26;;;;;;;29.37;19.00;;;10.80;99.90;;;;;;5021033;28;20913;-69
2024/03/04 11:52:07;;;;;;;28.10;17.73;;;10.80;99.90;;;;;;5020732;28;20434;-69
2024/03/04 11:54:32;;;;;;;29.77;18.70;;;10.80;99.90;;;;;;5020740;28;20883;-69
2024/03/04 11:57:03;;;;;;;24.03;17.07;;;10.70;99.90;;;;;;5019871;28;20443;-68
2024/03/04 11:59:29;;;;;;;23.00;15.97;;;10.80;99.90;;;;;;5023226;28;20431;-68
2024/03/04 12:01:54;;;;;;;26.27;17.77;;;10.90;99.90;;;;;;5016879;28;20447;-68
2024/03/04 12:04:22;;;;;;;31.10;18.47;;;10.90;99.90;;;;;;5023487;28;20485;-68
2024/03/04 12:06:48;;;;;;;26.00;17.07;;;10.90;99.90;;;;;;5015929;28;20925;-68
2024/03/04 12:09:17;;;;;;;25.33;17.00;;;10.80;99.90;;;;;;5023154;28;20509;-68
2024/03/04 12:11:44;;;;;;;27.90;16.27;;;10.90;99.90;;;;;;5018361;28;20670;-68
2024/03/04 12:14:09;;;;;;;23.00;16.30;;;10.90;99.90;;;;;;5020823;28;20455;-69
2024/03/04 12:16:37;;;;;;;24.03;17.10;;;10.80;99.90;;;;;;5019210;28;20848;-69
2024/03/04 12:19:03;;;;;;;29.20;16.20;;;10.80;99.90;;;;;;5023431;28;20641;-68
2024/03/04 12:21:28;;;;;;;29.00;18.60;;;10.80;99.90;;;;;;5018037;28;20446;-68
2024/03/04 12:23:55;;;;;;;24.43;16.43;;;10.80;99.90;;;;;;5020472;28;20562;-68
2024/03/04 12:26:21;;;;;;;23.73;16.20;;;10.90;99.90;;;;;;5018245;28;20184;-67
2024/03/04 12:28:57;;;;;;;22.53;16.10;;;10.90;99.90;;;;;;5023888;28;20419;-67